Virgo Phoenix — 3FMO8 — position and weather

sailwx.info

Track history (hours):
 
Tides and Currents Weather Stations Pressure Air Temp Water Temp Dewpoint Dewpoint Depression Visibility Wind Speed Wind Dir Waves Ship Positions

Virgo Phoenix

Last reported at 2016-May-24 03:33 UTC. Time now 2016-May-24 13:46 UTC.
Position N 34°57' E 139°28'.

Length 96 m; draft 6.8 m.

Type: Ship (hazmat cat C). MMSI: 370795000.

Date/timePositionNaut miles runAvg speedWind from/ knotsBaromVisibWave heightAir tempDewpointWater temp
2016-May-24 03:33N 34°57' E 139°28'1212.3
2016-May-24 02:33N 35°05' E 139°39'1211.8
2016-May-24 01:32N 35°15' E 139°46'1110.8
2016-May-24 00:33N 35°26' E 139°45'6 5.5
2016-May-23 23:31N 35°31' E 139°46'0 0.0
2016-May-23 22:31N 35°31' E 139°46'0 0.0
2016-May-23 21:31N 35°31' E 139°46'0 0.0
2016-May-23 20:28N 35°31' E 139°46'0 0.0
2016-May-23 19:19N 35°31' E 139°46'0 0.0
2016-May-23 18:25N 35°31' E 139°46'0 0.0
2016-May-23 17:31N 35°31' E 139°46'0 0.0
2016-May-23 16:31N 35°31' E 139°46'0 0.0
2016-May-23 15:25N 35°31' E 139°46'0 0.0
2016-May-23 14:28N 35°31' E 139°46'0 0.0
2016-May-23 13:16N 35°31' E 139°46'0 0.0
2016-May-23 12:28N 35°31' E 139°46'0 0.0
2016-May-23 11:25N 35°31' E 139°46'0 0.0
2016-May-23 10:31N 35°31' E 139°46'0 0.0
2016-May-23 09:31N 35°31' E 139°46'0 0.0
2016-May-23 08:31N 35°31' E 139°46'0 0.0
2016-May-23 07:31N 35°31' E 139°46'0 0.0
2016-May-23 06:28N 35°31' E 139°46'0 0.0
2016-May-23 05:28N 35°31' E 139°46'0 0.0
2016-May-23 04:31N 35°31' E 139°46'4 4.2
2016-May-23 03:33N 35°29' E 139°42'4 3.6
2016-May-23 02:31N 35°29' E 139°46'0 0.0
2016-May-23 01:31N 35°29' E 139°46'0 0.0
2016-May-23 00:31N 35°29' E 139°46'0 0.0
2016-May-22 23:31N 35°29' E 139°46'0 0.0
2016-May-22 22:31N 35°29' E 139°46'0 0.1
2016-May-22 21:31N 35°29' E 139°47'0 0.0
2016-May-22 20:31N 35°29' E 139°47'0 0.0
2016-May-22 19:31N 35°29' E 139°46'0 0.1
2016-May-22 18:31N 35°29' E 139°47'0 0.1
2016-May-22 17:31N 35°29' E 139°46'0 0.0
2016-May-22 16:31N 35°29' E 139°46'0 0.0
2016-May-22 15:31N 35°29' E 139°46'0 0.0
2016-May-22 14:31N 35°29' E 139°46'0 0.0
2016-May-22 13:31N 35°29' E 139°46'0 0.0
2016-May-22 12:31N 35°29' E 139°46'2 1.9
2016-May-22 11:31N 35°27' E 139°45'0 0.0
2016-May-22 10:31N 35°27' E 139°45'5 4.8
2016-May-22 09:33N 35°23' E 139°46'1211.9
2016-May-22 08:33N 35°11' E 139°46'  
2016-May-19 07:19N 31°20' E 121°40'911.0
2016-May-19 06:30N 31°25' E 121°31'1010.5
2016-May-19 05:33N 31°31' E 121°22'1212.1
2016-May-19 04:33N 31°40' E 121°12'1212.2
2016-May-19 03:32N 31°47' E 120°60'1211.7
2016-May-19 02:32N 31°56' E 120°52'1111.0
2016-May-19 01:30N 31°60' E 120°39'11 0.4
2016-May-18 01:10N 31°58' E 120°27'4 6.0
2016-May-18 00:27N 32°02' E 120°29'4 0.6
2016-May-17 17:11N 32°01' E 120°34'5 0.5
2016-May-17 07:24N 32°00' E 120°40'9 9.9
2016-May-17 06:29N 31°59' E 120°50'2410.0
2016-May-17 04:03N 31°41' E 121°10'611.4
2016-May-17 03:33N 31°38' E 121°15'1212.3
2016-May-17 02:34N 31°30' E 121°26'9 9.2
2016-May-17 01:33N 31°24' E 121°34'2512.0
2016-May-16 23:27N 31°07' E 121°57'  
Track history (hours):
 
Tides and Currents Weather Stations Pressure Air Temp Water Temp Dewpoint Dewpoint Depression Visibility Wind Speed Wind Dir Waves Ship Positions

Virgo Phoenix

Last reported at 2016-May-24 03:33 UTC. Time now 2016-May-24 13:46 UTC.
Position N 34°57' E 139°28'.

Length 96 m; draft 6.8 m.

Type: Ship (hazmat cat C). MMSI: 370795000.

Date/timePositionNaut miles runAvg speedWind from/ knotsBaromVisibWave heightAir tempDewpointWater temp
2016-May-24 03:33N 34°57' E 139°28'1212.3
2016-May-24 02:33N 35°05' E 139°39'1211.8
2016-May-24 01:32N 35°15' E 139°46'1110.8
2016-May-24 00:33N 35°26' E 139°45'6 5.5
2016-May-23 23:31N 35°31' E 139°46'0 0.0
2016-May-23 22:31N 35°31' E 139°46'0 0.0
2016-May-23 21:31N 35°31' E 139°46'0 0.0
2016-May-23 20:28N 35°31' E 139°46'0 0.0
2016-May-23 19:19N 35°31' E 139°46'0 0.0
2016-May-23 18:25N 35°31' E 139°46'0 0.0
2016-May-23 17:31N 35°31' E 139°46'0 0.0
2016-May-23 16:31N 35°31' E 139°46'0 0.0
2016-May-23 15:25N 35°31' E 139°46'0 0.0
2016-May-23 14:28N 35°31' E 139°46'0 0.0
2016-May-23 13:16N 35°31' E 139°46'0 0.0
2016-May-23 12:28N 35°31' E 139°46'0 0.0
2016-May-23 11:25N 35°31' E 139°46'0 0.0
2016-May-23 10:31N 35°31' E 139°46'0 0.0
2016-May-23 09:31N 35°31' E 139°46'0 0.0
2016-May-23 08:31N 35°31' E 139°46'0 0.0
2016-May-23 07:31N 35°31' E 139°46'0 0.0
2016-May-23 06:28N 35°31' E 139°46'0 0.0
2016-May-23 05:28N 35°31' E 139°46'0 0.0
2016-May-23 04:31N 35°31' E 139°46'4 4.2
2016-May-23 03:33N 35°29' E 139°42'4 3.6
2016-May-23 02:31N 35°29' E 139°46'0 0.0
2016-May-23 01:31N 35°29' E 139°46'0 0.0
2016-May-23 00:31N 35°29' E 139°46'0 0.0
2016-May-22 23:31N 35°29' E 139°46'0 0.0
2016-May-22 22:31N 35°29' E 139°46'0 0.1
2016-May-22 21:31N 35°29' E 139°47'0 0.0
2016-May-22 20:31N 35°29' E 139°47'0 0.0
2016-May-22 19:31N 35°29' E 139°46'0 0.1
2016-May-22 18:31N 35°29' E 139°47'0 0.1
2016-May-22 17:31N 35°29' E 139°46'0 0.0
2016-May-22 16:31N 35°29' E 139°46'0 0.0
2016-May-22 15:31N 35°29' E 139°46'0 0.0
2016-May-22 14:31N 35°29' E 139°46'0 0.0
2016-May-22 13:31N 35°29' E 139°46'0 0.0
2016-May-22 12:31N 35°29' E 139°46'2 1.9
2016-May-22 11:31N 35°27' E 139°45'0 0.0
2016-May-22 10:31N 35°27' E 139°45'5 4.8
2016-May-22 09:33N 35°23' E 139°46'1211.9
2016-May-22 08:33N 35°11' E 139°46'  
2016-May-19 07:19N 31°20' E 121°40'911.0
2016-May-19 06:30N 31°25' E 121°31'1010.5
2016-May-19 05:33N 31°31' E 121°22'1212.1
2016-May-19 04:33N 31°40' E 121°12'1212.2
2016-May-19 03:32N 31°47' E 120°60'1211.7
2016-May-19 02:32N 31°56' E 120°52'1111.0
2016-May-19 01:30N 31°60' E 120°39'11 0.4
2016-May-18 01:10N 31°58' E 120°27'4 6.0
2016-May-18 00:27N 32°02' E 120°29'4 0.6
2016-May-17 17:11N 32°01' E 120°34'5 0.5
2016-May-17 07:24N 32°00' E 120°40'9 9.9
2016-May-17 06:29N 31°59' E 120°50'2410.0
2016-May-17 04:03N 31°41' E 121°10'611.4
2016-May-17 03:33N 31°38' E 121°15'1212.3
2016-May-17 02:34N 31°30' E 121°26'9 9.2
2016-May-17 01:33N 31°24' E 121°34'2512.0
2016-May-16 23:27N 31°07' E 121°57'  

Dump ship's entire track history